createdAt,value
2019-03-11T00:02:28.110Z,33.21
2019-03-11T00:04:56.568Z,32.94
2019-03-11T00:07:24.952Z,32.89
2019-03-11T00:09:53.352Z,33.05
2019-03-11T00:12:21.743Z,32.94
2019-03-11T00:14:50.171Z,32.80
2019-03-11T00:17:18.629Z,32.67
2019-03-11T00:19:47.016Z,33.00
2019-03-11T00:22:15.600Z,32.74
2019-03-11T00:24:43.984Z,32.98
2019-03-11T00:27:12.373Z,32.97
2019-03-11T00:29:40.912Z,32.99
2019-03-11T00:32:09.302Z,32.93
2019-03-11T00:34:37.690Z,32.79
2019-03-11T00:37:06.082Z,32.86
2019-03-11T00:39:34.472Z,32.75
2019-03-11T00:42:02.859Z,32.85
2019-03-11T00:44:31.323Z,32.89
2019-03-11T00:46:59.720Z,32.90
2019-03-11T00:49:28.119Z,32.86
2019-03-11T00:51:56.577Z,32.84
2019-03-11T00:54:24.960Z,32.81
2019-03-11T00:56:53.350Z,32.96
2019-03-11T00:59:21.742Z,32.97
2019-03-11T01:01:50.162Z,32.78
2019-03-11T01:04:18.632Z,32.73
2019-03-11T01:06:47.028Z,32.90
2019-03-11T01:09:15.417Z,32.75
2019-03-11T01:11:43.810Z,32.72
2019-03-11T01:14:12.199Z,32.66
2019-03-11T01:16:40.664Z,32.48
2019-03-11T01:19:09.126Z,32.34
2019-03-11T01:21:37.520Z,32.44
2019-03-11T01:24:06.075Z,32.40
2019-03-11T01:26:34.487Z,32.42
2019-03-11T01:29:02.866Z,32.19
2019-03-11T01:31:33.150Z,32.06
2019-03-11T01:34:01.364Z,32.20
2019-03-11T01:36:29.758Z,32.20
2019-03-11T01:38:58.143Z,32.16
2019-03-11T01:41:26.601Z,31.75
2019-03-11T01:43:54.997Z,31.93
2019-03-11T01:46:23.521Z,31.98
2019-03-11T01:48:51.911Z,31.92
2019-03-11T01:51:20.316Z,31.27
2019-03-11T01:53:48.706Z,31.65
2019-03-11T01:56:17.114Z,31.34
2019-03-11T01:58:45.500Z,31.36
2019-03-11T02:01:13.936Z,31.18
2019-03-11T02:03:42.311Z,31.47
2019-03-11T02:06:10.746Z,31.00
2019-03-11T02:08:39.141Z,31.03
2019-03-11T02:11:07.552Z,30.88
2019-03-11T02:13:35.936Z,30.90
2019-03-11T02:16:04.363Z,30.86
2019-03-11T02:18:32.820Z,31.16
2019-03-11T02:21:01.264Z,30.91
2019-03-11T02:23:29.681Z,31.12
2019-03-11T02:25:58.128Z,30.79
2019-03-11T02:28:26.511Z,30.92
2019-03-11T02:30:54.945Z,30.70
2019-03-11T02:33:23.340Z,30.68
2019-03-11T02:35:51.757Z,30.49
2019-03-11T02:38:20.146Z,30.42
2019-03-11T02:40:48.621Z,30.42
2019-03-11T02:43:17.004Z,30.26
2019-03-11T02:45:45.422Z,30.42
2019-03-11T02:48:13.806Z,30.19
2019-03-11T02:50:42.197Z,30.34
2019-03-11T02:53:10.597Z,30.18
2019-03-11T02:55:38.974Z,30.32
2019-03-11T02:58:07.386Z,30.29
2019-03-11T03:00:35.751Z,30.26
2019-03-11T03:03:14.367Z,30.12
2019-03-11T03:05:44.387Z,30.30
2019-03-11T03:08:12.786Z,30.21
2019-03-11T03:10:41.176Z,30.37
2019-03-11T03:13:09.581Z,30.28
2019-03-11T03:15:37.960Z,30.40
2019-03-11T03:18:06.352Z,30.48
2019-03-11T03:20:34.751Z,30.47
2019-03-11T03:23:03.146Z,30.64
2019-03-11T03:25:34.254Z,30.71
2019-03-11T03:28:01.833Z,30.75
2019-03-11T03:30:30.353Z,30.82
2019-03-11T03:32:58.813Z,30.81
2019-03-11T03:35:27.240Z,30.85
2019-03-11T03:37:55.629Z,30.82
2019-03-11T03:40:24.018Z,30.90
2019-03-11T03:42:52.597Z,30.98
2019-03-11T03:45:23.391Z,31.05
2019-03-11T03:47:51.783Z,31.11
2019-03-11T03:50:21.608Z,31.18
2019-03-11T03:52:49.999Z,31.22
2019-03-11T03:55:18.393Z,31.17
2019-03-11T03:57:46.819Z,31.16
2019-03-11T04:00:15.161Z,31.27
2019-03-11T04:02:43.563Z,31.17
2019-03-11T04:05:12.993Z,31.29
2019-03-11T04:07:41.397Z,31.08
2019-03-11T04:10:12.126Z,31.23
2019-03-11T04:12:40.641Z,31.35
2019-03-11T04:15:09.926Z,31.31
2019-03-11T04:17:38.318Z,31.39
2019-03-11T04:20:09.603Z,31.42
2019-03-11T04:22:38.009Z,31.41
2019-03-11T04:25:07.635Z,31.44
2019-03-11T04:27:36.065Z,31.21
2019-03-11T04:30:07.490Z,31.42
2019-03-11T04:32:35.911Z,31.50
2019-03-11T04:35:05.647Z,31.61
2019-03-11T04:37:34.045Z,31.59
2019-03-11T04:40:02.437Z,31.58
2019-03-11T04:42:30.868Z,31.35
2019-03-11T04:44:59.258Z,31.56
2019-03-11T04:47:27.677Z,31.59
2019-03-11T04:49:56.066Z,31.73
2019-03-11T04:52:24.497Z,31.71
2019-03-11T04:54:52.875Z,31.76
2019-03-11T04:57:23.466Z,31.80
2019-03-11T04:59:51.394Z,31.80
2019-03-11T05:02:19.826Z,31.79
2019-03-11T05:04:48.214Z,31.78
2019-03-11T05:07:16.738Z,31.79
2019-03-11T05:09:45.130Z,31.77
2019-03-11T05:12:13.384Z,31.76
2019-03-11T05:14:41.608Z,31.89
2019-03-11T05:17:10.030Z,31.80
2019-03-11T05:19:38.443Z,31.86
2019-03-11T05:22:06.832Z,31.77
2019-03-11T05:24:35.220Z,31.83
2019-03-11T05:27:03.627Z,31.80
2019-03-11T05:29:32.015Z,31.87
2019-03-11T05:32:00.439Z,31.84
2019-03-11T05:34:28.831Z,31.91
2019-03-11T05:36:57.267Z,31.98
2019-03-11T05:39:25.659Z,31.87
2019-03-11T05:41:54.043Z,31.78
2019-03-11T05:44:22.434Z,31.94
2019-03-11T05:46:50.819Z,31.89
2019-03-11T05:49:19.353Z,31.91
2019-03-11T05:51:47.738Z,31.98
2019-03-11T05:54:16.159Z,31.98
2019-03-11T05:56:44.539Z,31.91
2019-03-11T05:59:12.949Z,31.87
2019-03-11T06:01:41.341Z,31.99
2019-03-11T06:04:09.720Z,31.93
2019-03-11T06:06:38.102Z,31.93
2019-03-11T06:09:07.002Z,32.05
2019-03-11T06:11:35.394Z,31.99
2019-03-11T06:14:03.782Z,32.13
2019-03-11T06:16:32.168Z,32.12
2019-03-11T06:19:00.559Z,32.05
2019-03-11T06:21:30.625Z,32.13
2019-03-11T06:23:59.015Z,32.16
2019-03-11T06:26:27.400Z,31.97
2019-03-11T06:28:55.835Z,32.07
2019-03-11T06:31:24.221Z,32.07
2019-03-11T06:33:52.619Z,32.03
2019-03-11T06:36:21.007Z,32.16
2019-03-11T06:38:49.595Z,32.10
2019-03-11T06:41:17.982Z,32.04
2019-03-11T06:43:46.472Z,31.85
2019-03-11T06:46:14.914Z,31.96
2019-03-11T06:48:43.304Z,32.01
2019-03-11T06:51:11.698Z,31.94
2019-03-11T06:53:40.087Z,31.89
2019-03-11T06:56:08.472Z,31.89
2019-03-11T06:58:36.860Z,31.97
2019-03-11T07:01:05.250Z,31.93
2019-03-11T07:03:33.738Z,31.92
2019-03-11T07:06:02.147Z,31.89
2019-03-11T07:08:30.640Z,31.90
2019-03-11T07:10:59.029Z,31.88
2019-03-11T07:13:27.447Z,31.90
2019-03-11T07:15:55.841Z,31.87
2019-03-11T07:18:24.266Z,31.96
2019-03-11T07:20:52.656Z,31.95
2019-03-11T07:23:21.066Z,31.97
2019-03-11T07:25:49.455Z,31.99
2019-03-11T07:28:18.106Z,31.94
2019-03-11T07:30:46.496Z,31.94
2019-03-11T07:33:15.073Z,31.92
2019-03-11T07:35:43.467Z,31.94
2019-03-11T07:38:11.887Z,31.87
2019-03-11T07:40:40.363Z,31.83
2019-03-11T07:43:08.905Z,31.91
2019-03-11T07:45:37.277Z,31.87
2019-03-11T07:48:05.708Z,31.90
2019-03-11T07:50:34.088Z,32.05
2019-03-11T07:53:02.508Z,32.24
2019-03-11T07:55:30.947Z,32.13
2019-03-11T07:57:59.302Z,31.94
2019-03-11T08:00:27.692Z,32.01
2019-03-11T08:02:56.082Z,31.87
2019-03-11T08:05:24.467Z,31.81
2019-03-11T08:07:52.982Z,31.82
2019-03-11T08:10:25.242Z,31.79
2019-03-11T08:12:53.632Z,31.80
2019-03-11T08:15:22.029Z,31.89
2019-03-11T08:17:50.416Z,31.99
2019-03-11T08:20:18.876Z,32.02
2019-03-11T08:22:47.268Z,31.94
2019-03-11T08:25:16.125Z,31.88
2019-03-11T08:27:44.780Z,31.89
2019-03-11T08:30:22.842Z,31.73
2019-03-11T08:32:51.229Z,31.59
2019-03-11T08:35:19.649Z,31.51
2019-03-11T08:37:48.019Z,31.50
2019-03-11T08:40:17.769Z,31.48
2019-03-11T08:42:46.149Z,31.53
2019-03-11T08:45:15.719Z,31.63
2019-03-11T08:47:44.229Z,31.59
2019-03-11T08:50:16.291Z,31.57
2019-03-11T08:52:44.742Z,31.54
2019-03-11T08:55:13.214Z,31.53
2019-03-11T08:57:41.682Z,31.65
2019-03-11T09:00:14.276Z,31.56
2019-03-11T09:02:42.667Z,31.59
2019-03-11T09:05:11.831Z,31.66
2019-03-11T09:07:40.238Z,31.67
2019-03-11T09:10:15.954Z,31.60
2019-03-11T09:12:44.361Z,31.69
2019-03-11T09:15:22.023Z,31.67
2019-03-11T09:17:50.407Z,31.67
2019-03-11T09:20:19.135Z,31.65
2019-03-11T09:22:47.523Z,31.66
2019-03-11T09:25:18.809Z,31.64
2019-03-11T09:27:47.230Z,31.66
2019-03-11T09:30:20.127Z,31.68
2019-03-11T09:32:48.522Z,31.63
2019-03-11T09:35:17.004Z,31.71
2019-03-11T09:37:45.385Z,31.70
2019-03-11T09:40:21.075Z,31.73
2019-03-11T09:42:49.473Z,31.78
2019-03-11T09:45:18.909Z,31.86
2019-03-11T09:47:47.471Z,31.95
2019-03-11T09:50:16.226Z,31.97
2019-03-11T09:52:44.759Z,32.00
2019-03-11T09:55:16.031Z,32.04
2019-03-11T09:57:44.423Z,32.06
2019-03-11T10:00:24.907Z,32.09
2019-03-11T10:02:53.764Z,32.08
2019-03-11T10:05:22.754Z,32.12
2019-03-11T10:07:51.179Z,32.13
2019-03-11T10:10:24.836Z,32.13
2019-03-11T10:12:53.215Z,32.18
2019-03-11T10:15:22.568Z,32.12
2019-03-11T10:17:50.955Z,32.15
2019-03-11T10:20:20.459Z,32.21
2019-03-11T10:22:48.844Z,32.20
2019-03-11T10:25:17.894Z,32.22
2019-03-11T10:27:46.313Z,32.25
2019-03-11T10:30:22.452Z,32.26
2019-03-11T10:32:50.950Z,32.28
2019-03-11T10:35:31.456Z,32.33
2019-03-11T10:37:50.203Z,32.38
2019-03-11T10:40:23.575Z,32.38
2019-03-11T10:42:51.991Z,32.41
2019-03-11T10:45:30.223Z,32.44
2019-03-11T10:47:50.505Z,32.27
2019-03-11T10:53:44.910Z,32.48
2019-03-11T10:56:13.342Z,32.48
2019-03-11T10:58:41.740Z,32.51
2019-03-11T11:01:10.214Z,32.54
2019-03-11T11:03:38.660Z,32.59
2019-03-11T11:06:06.884Z,32.59
2019-03-11T11:08:35.288Z,32.61
2019-03-11T11:11:03.682Z,32.57
2019-03-11T11:13:32.078Z,32.57
2019-03-11T11:16:00.480Z,32.58
2019-03-11T11:18:28.903Z,32.54
2019-03-11T11:20:57.297Z,32.51
2019-03-11T11:23:25.702Z,32.44
2019-03-11T11:25:54.092Z,32.28
2019-03-11T11:28:24.711Z,31.74
2019-03-11T11:30:53.118Z,31.42
2019-03-11T11:33:21.515Z,31.35
2019-03-11T11:35:49.913Z,31.34
2019-03-11T11:38:18.319Z,31.42
2019-03-11T11:40:46.720Z,31.48
2019-03-11T11:43:15.116Z,31.50
2019-03-11T11:45:43.508Z,31.48
2019-03-11T11:48:11.978Z,31.46
2019-03-11T11:50:40.410Z,31.50
2019-03-11T11:53:08.847Z,31.56
2019-03-11T11:55:37.330Z,31.55
2019-03-11T11:58:05.753Z,31.81
2019-03-11T12:00:38.814Z,31.91
2019-03-11T12:03:07.223Z,30.28
2019-03-11T12:05:35.651Z,29.44
2019-03-11T12:08:04.046Z,28.26
2019-03-11T12:10:33.522Z,27.24
2019-03-11T12:13:01.925Z,26.84
2019-03-11T12:15:30.337Z,26.84
2019-03-11T12:17:58.741Z,26.90
2019-03-11T12:20:28.028Z,26.74
2019-03-11T12:22:56.429Z,26.35
2019-03-11T12:25:24.971Z,26.61
2019-03-11T12:27:56.020Z,26.93
2019-03-11T12:30:30.641Z,27.43
2019-03-11T12:32:59.030Z,27.95
2019-03-11T12:35:27.707Z,28.49
2019-03-11T12:37:56.409Z,28.82
2019-03-11T12:40:24.871Z,28.58
2019-03-11T12:42:53.293Z,28.33
2019-03-11T12:45:22.942Z,28.11
2019-03-11T12:47:51.339Z,27.82
2019-03-11T12:50:27.412Z,27.60
2019-03-11T12:52:55.800Z,27.22
2019-03-11T12:55:24.194Z,26.93
2019-03-11T12:57:52.575Z,26.68
2019-03-11T13:00:24.848Z,26.58
2019-03-11T13:02:53.244Z,26.86
2019-03-11T13:05:21.639Z,27.30
2019-03-11T13:07:50.097Z,27.89
2019-03-11T13:10:23.465Z,28.32
2019-03-11T13:12:52.030Z,28.61
2019-03-11T13:15:20.599Z,29.00
2019-03-11T13:17:49.064Z,29.34
2019-03-11T13:20:29.807Z,28.50
2019-03-11T13:22:58.336Z,27.93
2019-03-11T13:25:26.763Z,27.94
2019-03-11T13:27:55.182Z,28.12
2019-03-11T13:30:23.592Z,28.43
2019-03-11T13:32:51.886Z,28.81
2019-03-11T13:35:20.309Z,29.01
2019-03-11T13:37:48.703Z,29.56
2019-03-11T13:40:18.765Z,29.94
2019-03-11T13:42:47.157Z,30.29
2019-03-11T13:45:19.146Z,30.63
2019-03-11T13:47:47.542Z,30.90
2019-03-11T13:50:17.413Z,31.18
2019-03-11T13:52:45.862Z,29.44
2019-03-11T13:55:17.529Z,29.35
2019-03-11T13:57:45.985Z,29.37
2019-03-11T14:00:19.706Z,29.50
2019-03-11T14:02:48.098Z,28.88
2019-03-11T14:05:16.490Z,26.88
2019-03-11T14:07:44.973Z,25.28
2019-03-11T14:10:14.296Z,23.81
2019-03-11T14:12:42.693Z,25.04
2019-03-11T14:15:14.071Z,24.92
2019-03-11T14:17:42.475Z,24.36
2019-03-11T14:20:12.400Z,24.33
2019-03-11T14:22:40.874Z,23.89
2019-03-11T14:25:10.498Z,23.19
2019-03-11T14:27:38.972Z,23.13
2019-03-11T14:30:15.697Z,23.68
2019-03-11T14:32:44.105Z,24.82
2019-03-11T14:35:13.160Z,25.37
2019-03-11T14:37:41.583Z,25.35
2019-03-11T14:40:17.786Z,25.88
2019-03-11T14:42:47.846Z,26.37
2019-03-11T14:45:23.381Z,26.93
2019-03-11T14:47:51.785Z,27.22
2019-03-11T14:50:20.232Z,27.55
2019-03-11T14:52:48.620Z,28.03
2019-03-11T14:55:17.016Z,28.12
2019-03-11T14:57:45.422Z,28.45
2019-03-11T15:00:21.813Z,28.46
2019-03-11T15:02:50.276Z,29.06
2019-03-11T15:05:19.344Z,29.09
2019-03-11T15:07:47.921Z,29.32
2019-03-11T15:10:17.710Z,29.51
2019-03-11T15:12:46.105Z,29.76
2019-03-11T15:15:23.001Z,29.93
2019-03-11T15:17:51.397Z,29.88
2019-03-11T15:20:19.783Z,30.34
2019-03-11T15:22:48.174Z,30.52
2019-03-11T15:25:17.001Z,30.78
2019-03-11T15:27:45.728Z,31.01
2019-03-11T15:30:18.436Z,30.96
2019-03-11T15:32:46.881Z,31.18
2019-03-11T15:35:15.278Z,31.36
2019-03-11T15:37:43.666Z,31.47
2019-03-11T15:40:18.004Z,31.63
2019-03-11T15:42:46.402Z,31.56
2019-03-11T15:45:19.787Z,31.74
2019-03-11T15:47:48.196Z,31.86
2019-03-11T15:50:22.423Z,32.02
2019-03-11T15:52:50.813Z,32.08
2019-03-11T15:55:19.199Z,32.19
2019-03-11T15:57:47.608Z,32.24
2019-03-11T16:00:20.735Z,32.34
2019-03-11T16:02:49.195Z,32.50
2019-03-11T16:05:21.849Z,32.65
2019-03-11T16:07:50.736Z,32.68
2019-03-11T16:10:19.232Z,32.51
2019-03-11T16:12:47.906Z,32.77
2019-03-11T16:15:17.470Z,32.99
2019-03-11T16:17:47.227Z,32.98
2019-03-11T16:20:18.226Z,33.07
2019-03-11T16:22:46.730Z,33.21
2019-03-11T16:25:15.128Z,33.31
2019-03-11T16:27:43.569Z,33.38
2019-03-11T16:30:27.619Z,33.42
2019-03-11T16:32:59.862Z,33.52
2019-03-11T16:35:27.703Z,33.61
2019-03-11T16:37:56.106Z,33.58
2019-03-11T16:40:24.573Z,33.70
2019-03-11T16:42:52.984Z,33.83
2019-03-11T16:45:21.454Z,33.80
2019-03-11T16:47:49.859Z,33.84
2019-03-11T16:50:19.690Z,34.04
2019-03-11T16:52:48.094Z,34.06
2019-03-11T16:55:19.964Z,33.89
2019-03-11T16:57:48.365Z,34.02
2019-03-11T17:00:19.071Z,34.17
2019-03-11T17:02:47.695Z,34.14
2019-03-11T17:05:16.096Z,34.02
2019-03-11T17:07:44.510Z,33.85
2019-03-11T17:10:18.993Z,33.60
2019-03-11T17:12:47.389Z,33.87
2019-03-11T17:15:15.792Z,33.70
2019-03-11T17:17:44.194Z,33.61
2019-03-11T17:20:20.190Z,33.86
2019-03-11T17:22:49.662Z,33.54
2019-03-11T17:25:18.056Z,33.56
2019-03-11T17:27:46.477Z,33.85
2019-03-11T17:30:20.033Z,33.71
2019-03-11T17:32:48.488Z,33.59
2019-03-11T17:35:17.199Z,33.51
2019-03-11T17:37:46.009Z,32.73
2019-03-11T17:40:21.806Z,32.45
2019-03-11T17:42:50.378Z,33.10
2019-03-11T17:45:18.904Z,33.19
2019-03-11T17:47:47.335Z,33.17
2019-03-11T17:50:23.807Z,33.09
2019-03-11T17:52:52.248Z,33.28
2019-03-11T17:55:20.983Z,33.20
2019-03-11T17:57:49.414Z,33.06
2019-03-11T18:00:25.655Z,33.57
2019-03-11T18:02:54.759Z,33.50
2019-03-11T18:05:23.149Z,33.80
2019-03-11T18:07:51.648Z,34.05
2019-03-11T18:10:20.123Z,33.98
2019-03-11T18:12:48.560Z,34.16
2019-03-11T18:15:17.061Z,34.32
2019-03-11T18:17:45.519Z,34.27
2019-03-11T18:20:20.406Z,34.28
2019-03-11T18:22:48.842Z,34.31
2019-03-11T18:25:20.981Z,34.06
2019-03-11T18:27:49.514Z,34.25
2019-03-11T18:30:23.172Z,34.42
2019-03-11T18:32:51.534Z,34.45
2019-03-11T18:35:19.983Z,34.29
2019-03-11T18:37:48.356Z,34.42
2019-03-11T18:40:19.056Z,34.46
2019-03-11T18:42:47.465Z,34.34
2019-03-11T18:45:16.628Z,34.18
2019-03-11T18:47:45.029Z,34.31
2019-03-11T18:50:22.029Z,34.41
2019-03-11T18:52:50.420Z,34.43
2019-03-11T18:55:18.820Z,34.31
2019-03-11T18:57:48.904Z,34.16
2019-03-11T19:00:18.614Z,33.91
2019-03-11T19:02:47.004Z,33.89
2019-03-11T19:05:16.941Z,33.80
2019-03-11T19:07:45.426Z,33.76
2019-03-11T19:10:15.395Z,33.44
2019-03-11T19:12:43.813Z,33.63
2019-03-11T19:15:20.626Z,33.63
2019-03-11T19:17:49.150Z,33.54
2019-03-11T19:20:20.160Z,33.48
2019-03-11T19:22:48.683Z,33.43
2019-03-11T19:25:17.569Z,33.44
2019-03-11T19:27:46.059Z,33.56
2019-03-11T19:30:19.242Z,33.62
2019-03-11T19:32:47.698Z,33.43
2019-03-11T19:35:17.648Z,33.41
2019-03-11T19:37:46.100Z,33.47
2019-03-11T19:40:18.935Z,33.38
2019-03-11T19:42:47.378Z,33.45
2019-03-11T19:45:16.632Z,33.49
2019-03-11T19:47:45.150Z,33.58
2019-03-11T19:50:15.659Z,33.64
2019-03-11T19:52:44.127Z,33.68
2019-03-11T19:55:12.591Z,33.59
2019-03-11T19:57:41.122Z,33.57
2019-03-11T20:00:12.614Z,33.44
2019-03-11T20:02:41.162Z,33.48
2019-03-11T20:05:13.235Z,33.63
2019-03-11T20:07:41.819Z,33.55
2019-03-11T20:10:11.856Z,33.55
2019-03-11T20:12:40.249Z,33.72
2019-03-11T20:15:12.096Z,33.55
2019-03-11T20:17:40.643Z,33.72
2019-03-11T20:20:19.452Z,33.38
2019-03-11T20:22:50.192Z,33.51
2019-03-11T20:25:27.864Z,33.32
2019-03-11T20:27:56.374Z,33.54
2019-03-11T20:30:25.251Z,33.65
2019-03-11T20:32:53.686Z,33.64
2019-03-11T20:35:22.136Z,33.67
2019-03-11T20:37:51.755Z,33.70
2019-03-11T20:40:20.211Z,33.71
2019-03-11T20:42:48.665Z,33.67
2019-03-11T20:45:21.049Z,33.69
2019-03-11T20:47:49.478Z,33.60
2019-03-11T20:50:18.684Z,33.59
2019-03-11T20:52:47.099Z,33.54
2019-03-11T20:55:22.024Z,33.50
2019-03-11T20:57:50.541Z,33.60
2019-03-11T21:00:23.041Z,33.58
2019-03-11T21:02:51.601Z,33.63
2019-03-11T21:05:39.874Z,33.59
2019-03-11T21:08:08.286Z,33.55
2019-03-11T21:10:36.793Z,33.55
2019-03-11T21:13:05.316Z,33.65
2019-03-11T21:15:33.778Z,33.63
2019-03-11T21:18:02.430Z,33.73
2019-03-11T21:20:30.847Z,33.76
2019-03-11T21:22:59.226Z,33.73
2019-03-11T21:25:27.780Z,33.73
2019-03-11T21:27:56.213Z,33.83
2019-03-11T21:30:25.902Z,33.87
2019-03-11T21:32:54.369Z,33.91
2019-03-11T21:35:22.826Z,33.95
2019-03-11T21:37:51.263Z,33.98
2019-03-11T21:40:21.855Z,33.98
2019-03-11T21:42:50.368Z,33.95
2019-03-11T21:45:19.176Z,34.00
2019-03-11T21:47:50.727Z,34.14
2019-03-11T21:50:28.357Z,34.13
2019-03-11T21:52:57.268Z,34.20
2019-03-11T21:55:25.735Z,34.12
2019-03-11T21:57:54.189Z,34.02
2019-03-11T22:00:34.566Z,34.21
2019-03-11T22:02:55.932Z,34.30
2019-03-11T22:05:24.411Z,34.31
2019-03-11T22:07:53.083Z,34.31
2019-03-11T22:10:21.746Z,34.26
2019-03-11T22:12:50.149Z,34.27
2019-03-11T22:15:20.295Z,34.34
2019-03-11T22:17:54.767Z,34.42
2019-03-11T22:20:23.263Z,34.39
2019-03-11T22:22:51.660Z,34.33
2019-03-11T22:25:23.636Z,34.30
2019-03-11T22:27:52.032Z,34.34
2019-03-11T22:30:22.523Z,34.35
2019-03-11T22:32:51.039Z,34.29
2019-03-11T22:35:19.453Z,34.27
2019-03-11T22:37:47.849Z,34.28
2019-03-11T22:40:17.378Z,34.22
2019-03-11T22:42:45.904Z,34.27
2019-03-11T22:45:23.599Z,34.32
2019-03-11T22:47:52.178Z,34.38
2019-03-11T22:50:20.761Z,34.36
2019-03-11T22:52:49.120Z,34.25
2019-03-11T22:55:17.662Z,34.33
2019-03-11T22:57:46.067Z,34.27
2019-03-11T23:01:00.603Z,34.24
2019-03-11T23:03:29.120Z,34.34
2019-03-11T23:05:58.716Z,34.27
2019-03-11T23:08:27.303Z,34.32
2019-03-11T23:10:55.698Z,34.36
2019-03-11T23:13:24.104Z,34.27
2019-03-11T23:15:52.553Z,34.33
2019-03-11T23:18:20.941Z,34.34
2019-03-11T23:20:49.368Z,34.40
2019-03-11T23:23:17.760Z,34.40
2019-03-11T23:25:46.181Z,34.37
2019-03-11T23:28:14.581Z,34.41
2019-03-11T23:30:43.048Z,34.34
2019-03-11T23:33:11.442Z,34.39
2019-03-11T23:35:39.864Z,34.58
2019-03-11T23:38:08.253Z,34.48
2019-03-11T23:40:36.678Z,34.44
2019-03-11T23:43:05.116Z,34.42
2019-03-11T23:45:33.562Z,34.38
2019-03-11T23:48:01.953Z,34.46
2019-03-11T23:50:30.345Z,34.45
2019-03-11T23:52:58.787Z,34.43
2019-03-11T23:55:27.237Z,34.36
2019-03-11T23:57:55.630Z,34.26
